Time;durP1;ratioP1;P1;durP2;ratioP2;P2;SDS_P1;SDS_P2;PMS_P1;PMS_P2;Temp;Humidity;BMP_temperature;BMP_pressure;BME280_temperature;BME280_humidity;BME280_pressure;Samples;Min_cycle;Max_cycle;Signal;HPM_P1;HPM_P2
2023/07/16 00:02:19;;;;;;;6.80;4.20;;;;;;;24.57;53.42;98829.40;108206;1304;22173;-45
2023/07/16 00:04:44;;;;;;;4.80;4.10;;;;;;;24.55;53.43;98829.98;108204;1305;22302;-47
2023/07/16 00:07:10;;;;;;;4.70;4.00;;;;;;;24.53;53.94;98832.98;108210;1305;22260;-50
2023/07/16 00:09:35;;;;;;;4.90;3.90;;;;;;;24.52;53.97;98831.06;108205;1305;22233;-50
2023/07/16 00:12:01;;;;;;;7.30;4.30;;;;;;;24.49;54.10;98826.00;108225;1305;22218;-46
2023/07/16 00:14:26;;;;;;;7.00;4.40;;;;;;;24.48;54.42;98822.55;108245;1305;22309;-46
2023/07/16 00:16:51;;;;;;;7.60;3.90;;;;;;;24.48;54.12;98822.09;108204;1304;22218;-46
2023/07/16 00:19:16;;;;;;;7.40;4.30;;;;;;;24.47;54.38;98818.70;108219;1305;22674;-46
2023/07/16 00:21:42;;;;;;;8.30;4.40;;;;;;;24.46;54.34;98817.30;108222;1305;22407;-55
2023/07/16 00:24:07;;;;;;;6.10;4.20;;;;;;;24.43;54.78;98814.78;108198;1305;22386;-46
2023/07/16 00:26:32;;;;;;;10.00;3.80;;;;;;;24.40;54.50;98812.09;108216;1304;22226;-48
2023/07/16 00:28:58;;;;;;;6.00;4.00;;;;;;;24.37;54.54;98808.04;108207;1305;22907;-50
2023/07/16 00:31:23;;;;;;;9.40;6.40;;;;;;;24.34;54.55;98803.64;108234;1305;22322;-50
2023/07/16 00:33:48;;;;;;;7.70;4.90;;;;;;;24.34;55.19;98801.55;108225;1305;22295;-52
2023/07/16 00:36:14;;;;;;;5.60;4.40;;;;;;;24.32;55.26;98806.40;108249;1305;22423;-46
2023/07/16 00:38:42;;;;;;;5.20;4.20;;;;;;;24.28;55.56;98808.91;108231;1305;23127;-47
2023/07/16 00:41:08;;;;;;;7.10;4.40;;;;;;;24.25;55.53;98812.14;108231;1305;22309;-47
2023/07/16 00:43:33;;;;;;;6.90;4.00;;;;;;;24.23;55.50;98809.91;108239;1305;22216;-48
2023/07/16 00:45:59;;;;;;;4.90;4.40;;;;;;;24.20;55.86;98803.27;108233;1305;23123;-47
2023/07/16 00:48:25;;;;;;;6.00;5.00;;;;;;;24.19;55.69;98801.80;108229;1305;23002;-52
2023/07/16 00:50:53;;;;;;;5.70;4.30;;;;;;;24.17;55.70;98799.27;108247;1305;22401;-45
2023/07/16 00:53:20;;;;;;;4.80;4.30;;;;;;;24.15;56.04;98796.95;108247;1305;22979;-52
2023/07/16 00:55:45;;;;;;;7.70;4.00;;;;;;;24.14;55.88;98791.41;108227;1305;22225;-53
2023/07/16 00:58:11;;;;;;;6.00;4.10;;;;;;;24.12;55.88;98788.40;108239;1305;22992;-49
2023/07/16 01:00:38;;;;;;;6.70;3.90;;;;;;;24.10;56.33;98786.17;108227;1305;22239;-53
2023/07/16 01:03:06;;;;;;;6.30;4.00;;;;;;;24.08;56.37;98786.23;108232;1305;22208;-53
2023/07/16 01:06:09;;;;;;;3.80;3.50;;;;;;;24.05;56.39;98780.77;108221;1305;22988;-50
2023/07/16 01:09:00;;;;;;;5.60;4.40;;;;;;;24.03;56.37;98775.91;108234;1305;22196;-45
2023/07/16 01:11:27;;;;;;;6.60;4.10;;;;;;;24.00;56.66;98773.34;108224;1305;23188;-48
2023/07/16 01:13:53;;;;;;;4.20;3.70;;;;;;;23.98;57.03;98770.17;108223;1305;22521;-50
2023/07/16 01:16:23;;;;;;;8.20;4.40;;;;;;;23.98;57.28;98772.60;108221;1305;22208;-48
2023/07/16 01:18:49;;;;;;;4.90;4.30;;;;;;;23.97;57.34;98770.77;108229;1305;22364;-49
2023/07/16 01:21:19;;;;;;;7.20;4.60;;;;;;;23.94;57.02;98769.05;108216;1305;22562;-53
2023/07/16 01:24:09;;;;;;;7.50;5.30;;;;;;;23.92;57.43;98770.20;108223;1305;22217;-48
2023/07/16 01:26:56;;;;;;;9.50;4.60;;;;;;;23.89;57.74;98768.66;108240;1305;22224;-52
2023/07/16 01:29:28;;;;;;;;;;;;;;;23.87;57.98;98765.34;108221;1286;22400;-48
2023/07/16 01:31:56;;;;;;;7.00;4.20;;;;;;;23.83;58.08;98761.23;108245;1305;22395;-48
2023/07/16 01:34:23;;;;;;;4.50;4.10;;;;;;;23.80;57.98;98763.04;108206;1305;22630;-54
2023/07/16 01:36:49;;;;;;;7.50;4.20;;;;;;;23.77;58.35;98757.27;108225;1305;22172;-47
2023/07/16 01:39:15;;;;;;;6.50;4.60;;;;;;;23.75;58.44;98755.37;108222;1305;22236;-50
2023/07/16 01:41:40;;;;;;;7.70;4.60;;;;;;;23.73;58.65;98755.77;108204;1305;22949;-50
2023/07/16 01:44:05;;;;;;;8.00;4.80;;;;;;;23.73;58.11;98754.94;108242;1305;22250;-45
2023/07/16 01:46:31;;;;;;;7.20;4.70;;;;;;;23.69;58.78;98757.92;108218;1305;22291;-45
2023/07/16 01:48:57;;;;;;;7.00;4.50;;;;;;;23.66;59.06;98757.36;108217;1305;23027;-47
2023/07/16 01:51:22;;;;;;;4.90;4.40;;;;;;;23.64;59.14;98762.79;108214;1305;22403;-47
2023/07/16 01:53:47;;;;;;;6.90;4.10;;;;;;;23.61;58.85;98765.64;108217;1305;22194;-51
2023/07/16 01:56:12;;;;;;;6.20;4.30;;;;;;;23.57;59.56;98767.39;108214;1305;22883;-52
2023/07/16 01:58:38;;;;;;;6.50;4.40;;;;;;;23.55;59.51;98764.77;108197;1305;22227;-46
2023/07/16 02:01:04;;;;;;;6.70;4.40;;;;;;;23.52;59.83;98769.23;108221;1305;23635;-48
2023/07/16 02:03:29;;;;;;;5.80;4.00;;;;;;;23.49;59.85;98765.98;108218;1305;23061;-45
2023/07/16 02:05:54;;;;;;;5.30;4.30;;;;;;;23.47;59.59;98768.75;108201;1305;22261;-50
2023/07/16 02:08:20;;;;;;;6.00;4.50;;;;;;;23.43;59.68;98769.59;108210;1305;22213;-51
2023/07/16 02:10:48;;;;;;;7.50;4.70;;;;;;;23.38;60.10;98771.87;108226;1305;24379;-49
2023/07/16 02:13:13;;;;;;;5.80;4.60;;;;;;;23.35;60.14;98774.38;108235;1305;22256;-49
2023/07/16 02:15:38;;;;;;;7.40;4.50;;;;;;;23.33;60.74;98775.37;108222;1305;23011;-44
2023/07/16 02:18:04;;;;;;;7.30;4.80;;;;;;;23.31;60.75;98770.05;108190;1305;23148;-47
2023/07/16 02:20:30;;;;;;;5.40;4.90;;;;;;;23.28;60.78;98768.23;108236;1305;23185;-49
2023/07/16 02:22:55;;;;;;;5.80;4.50;;;;;;;23.25;61.01;98765.56;108232;1305;22193;-48
2023/07/16 02:25:21;;;;;;;7.50;4.30;;;;;;;23.23;60.98;98766.73;108207;1305;22281;-50
2023/07/16 02:27:46;;;;;;;8.00;4.50;;;;;;;23.21;61.31;98762.60;108233;1305;22236;-49
2023/07/16 02:30:14;;;;;;;5.30;4.40;;;;;;;23.19;61.81;98766.81;108194;1305;22252;-48
2023/07/16 02:32:39;;;;;;;5.10;4.40;;;;;;;23.16;61.70;98763.48;108222;1305;22218;-49
2023/07/16 02:35:05;;;;;;;14.00;5.10;;;;;;;23.15;61.25;98763.99;108207;1305;23087;-49
2023/07/16 02:37:30;;;;;;;7.50;5.00;;;;;;;23.10;62.23;98761.50;108229;1305;22215;-49
2023/07/16 02:39:56;;;;;;;5.50;4.60;;;;;;;23.09;62.12;98760.11;108220;1305;22239;-44
2023/07/16 02:43:40;;;;;;;5.30;4.60;;;;;;;23.09;62.39;98761.72;107303;1299;544920;-51
2023/07/16 02:46:06;;;;;;;5.80;5.00;;;;;;;23.05;62.53;98761.58;107648;1310;22446;-50
2023/07/16 02:48:31;;;;;;;4.90;4.50;;;;;;;23.04;62.63;98765.10;107652;1310;22302;-47
2023/07/16 02:50:56;;;;;;;6.20;4.70;;;;;;;23.01;62.52;98764.86;107656;1310;22562;-47
2023/07/16 02:53:21;;;;;;;6.70;4.90;;;;;;;22.99;62.66;98766.89;107657;1310;22263;-50
2023/07/16 02:55:48;;;;;;;8.90;4.90;;;;;;;22.97;62.81;98767.13;107672;1310;22250;-46
2023/07/16 02:58:13;;;;;;;6.10;5.00;;;;;;;22.96;62.97;98769.88;107793;1308;141505;-52
2023/07/16 03:00:39;;;;;;;4.90;4.40;;;;;;;22.95;62.92;98769.82;107940;1308;22224;-46
2023/07/16 03:03:07;;;;;;;6.80;4.50;;;;;;;22.93;63.05;98774.70;107879;1308;22430;-52
2023/07/16 03:05:32;;;;;;;6.30;4.40;;;;;;;22.92;63.13;98778.79;107929;1308;22253;-48
2023/07/16 03:07:58;;;;;;;6.80;4.70;;;;;;;22.89;63.56;98780.35;107884;1308;22471;-49
2023/07/16 03:10:26;;;;;;;8.10;4.80;;;;;;;22.88;63.51;98775.16;107917;1308;22247;-46
2023/07/16 03:12:52;;;;;;;7.60;5.00;;;;;;;22.87;63.86;98774.50;107911;1289;22430;-50
2023/07/16 03:15:17;;;;;;;8.60;5.00;;;;;;;22.87;64.04;98775.05;107894;1308;22222;-47
2023/07/16 03:17:42;;;;;;;7.70;4.40;;;;;;;22.87;63.84;98778.82;107905;1308;22514;-48
2023/07/16 03:20:08;;;;;;;7.60;5.20;;;;;;;22.87;63.91;98777.29;107880;1308;22237;-50
2023/07/16 03:22:34;;;;;;;9.50;5.50;;;;;;;22.83;64.25;98781.05;107898;1292;22255;-51
2023/07/16 03:25:00;;;;;;;5.50;5.00;;;;;;;22.82;64.30;98783.01;107513;1308;22243;-47
2023/07/16 03:27:29;;;;;;;6.30;5.00;;;;;;;22.80;64.54;98783.39;107880;1308;22976;-55
2023/07/16 03:29:54;;;;;;;5.30;4.60;;;;;;;22.81;63.83;98781.06;107887;1308;22279;-48
2023/07/16 03:32:19;;;;;;;6.70;4.90;;;;;;;22.82;64.12;98778.15;107680;1308;23147;-47
2023/07/16 03:34:45;;;;;;;5.80;4.80;;;;;;;22.82;64.38;98783.17;107902;1308;22350;-49
2023/07/16 03:37:10;;;;;;;10.10;5.30;;;;;;;22.82;64.60;98779.18;107881;1307;22214;-47
2023/07/16 03:39:35;;;;;;;9.30;4.60;;;;;;;22.80;64.63;98774.64;107906;1308;22623;-51
2023/07/16 03:42:01;;;;;;;6.80;4.60;;;;;;;22.80;64.49;98776.45;107876;1308;23020;-46
2023/07/16 03:44:26;;;;;;;5.20;4.70;;;;;;;22.80;64.79;98774.77;107830;1308;22225;-50
2023/07/16 03:46:51;;;;;;;6.90;4.80;;;;;;;22.81;64.73;98774.30;107868;1308;22295;-49
2023/07/16 03:49:17;;;;;;;4.90;4.40;;;;;;;22.83;64.74;98776.27;107877;1308;22239;-49
2023/07/16 03:51:42;;;;;;;6.00;5.10;;;;;;;22.84;64.82;98773.23;107835;1308;22272;-47
2023/07/16 03:54:07;;;;;;;5.70;4.90;;;;;;;22.87;64.53;98774.70;107880;1308;22232;-50
2023/07/16 03:56:32;;;;;;;8.70;4.80;;;;;;;22.89;64.70;98778.14;107846;1308;22321;-49
2023/07/16 03:58:58;;;;;;;6.80;4.80;;;;;;;22.89;65.05;98783.30;107830;1308;22216;-52
2023/07/16 04:01:23;;;;;;;5.40;4.90;;;;;;;22.86;65.25;98784.29;107837;1308;23200;-48
2023/07/16 04:03:48;;;;;;;6.80;4.90;;;;;;;22.86;65.15;98782.02;107825;1308;23071;-46
2023/07/16 04:06:14;;;;;;;9.20;5.10;;;;;;;22.86;65.09;98783.45;107884;1308;22421;-49
2023/07/16 04:08:41;;;;;;;5.80;4.80;;;;;;;22.84;65.08;98782.05;107835;1308;22230;-52
2023/07/16 04:11:06;;;;;;;11.10;5.80;;;;;;;22.84;65.02;98781.48;107820;1308;22090;-51
2023/07/16 04:13:32;;;;;;;6.90;5.10;;;;;;;22.85;65.23;98777.83;107834;1290;22207;-54
2023/07/16 04:15:58;;;;;;;6.80;4.90;;;;;;;22.86;65.23;98774.17;107859;1308;22456;-48
2023/07/16 04:18:24;;;;;;;9.00;4.90;;;;;;;22.84;65.37;98773.65;107825;1308;22450;-52
2023/07/16 04:20:50;;;;;;;9.20;5.70;;;;;;;22.85;65.85;98773.34;107854;1308;22222;-50
2023/07/16 04:23:15;;;;;;;10.70;5.30;;;;;;;22.87;65.19;98776.72;107839;1286;22223;-54
2023/07/16 04:25:40;;;;;;;5.40;4.90;;;;;;;22.87;65.42;98781.66;107858;1308;23067;-50
2023/07/16 04:28:06;;;;;;;10.50;4.80;;;;;;;22.87;65.44;98776.27;107832;1308;23025;-49
2023/07/16 04:30:31;;;;;;;5.90;5.00;;;;;;;22.90;65.40;98776.33;107859;1308;22408;-50
2023/07/16 04:32:57;;;;;;;7.00;4.50;;;;;;;22.91;65.31;98775.28;107823;1308;22256;-49
2023/07/16 04:35:22;;;;;;;7.70;5.00;;;;;;;22.93;65.16;98784.52;107867;1308;22284;-46
2023/07/16 04:37:47;;;;;;;6.50;4.90;;;;;;;22.96;65.21;98784.60;107841;1308;22826;-50
2023/07/16 04:40:12;;;;;;;8.00;5.60;;;;;;;22.97;65.28;98781.71;107863;1308;22902;-50
2023/07/16 04:42:38;;;;;;;6.10;4.80;;;;;;;23.01;65.15;98787.05;107861;1308;22238;-50
2023/07/16 04:45:05;;;;;;;11.90;5.10;;;;;;;23.03;65.47;98787.08;107814;1308;22306;-50
2023/07/16 04:47:30;;;;;;;7.10;4.90;;;;;;;23.06;65.31;98784.23;107876;1308;22243;-51
2023/07/16 04:49:55;;;;;;;5.70;4.60;;;;;;;23.08;65.63;98786.50;107847;1308;22499;-49
2023/07/16 04:52:21;;;;;;;8.20;5.20;;;;;;;23.11;65.42;98787.39;107860;1308;22475;-46
2023/07/16 04:54:46;;;;;;;5.20;4.60;;;;;;;23.14;65.14;98791.98;107877;1308;22402;-44
2023/07/16 04:57:11;;;;;;;9.60;5.20;;;;;;;23.18;65.28;98794.48;107855;1308;22853;-46
2023/07/16 04:59:36;;;;;;;8.20;4.40;;;;;;;23.19;65.65;98795.79;107881;1289;22265;-53
2023/07/16 05:02:05;;;;;;;10.00;5.10;;;;;;;23.23;65.17;98799.45;107847;1308;22728;-53
2023/07/16 05:04:30;;;;;;;5.20;4.30;;;;;;;23.26;65.46;98802.27;107882;1285;22206;-47
2023/07/16 05:06:56;;;;;;;5.50;4.80;;;;;;;23.31;65.19;98803.85;107858;1308;22400;-49
2023/07/16 05:09:21;;;;;;;7.60;5.00;;;;;;;23.35;65.14;98803.31;107861;1308;22223;-49
2023/07/16 05:11:47;;;;;;;7.40;4.50;;;;;;;23.39;64.92;98806.33;107835;1308;23220;-50
2023/07/16 05:14:12;;;;;;;9.80;4.80;;;;;;;23.43;64.86;98809.09;107828;1308;22474;-54
2023/07/16 05:16:37;;;;;;;7.70;4.70;;;;;;;23.48;65.03;98810.71;107883;1308;22229;-51
2023/07/16 05:19:02;;;;;;;5.30;4.30;;;;;;;23.52;64.83;98813.59;107871;1308;22210;-47
2023/07/16 05:21:28;;;;;;;5.30;4.80;;;;;;;23.56;64.72;98820.89;107859;1308;22394;-48
2023/07/16 05:23:53;;;;;;;6.40;4.30;;;;;;;23.61;65.07;98821.96;107872;1308;22302;-46
2023/07/16 05:26:18;;;;;;;8.80;4.50;;;;;;;23.66;64.63;98827.80;107843;1308;22924;-48
2023/07/16 05:28:43;;;;;;;6.20;4.70;;;;;;;23.73;64.28;98835.75;107842;1308;22239;-51
2023/07/16 05:31:09;;;;;;;7.80;4.50;;;;;;;23.79;64.31;98842.23;107871;1308;22231;-53
2023/07/16 05:33:34;;;;;;;7.40;4.40;;;;;;;23.84;64.41;98845.87;107855;1308;22272;-52
2023/07/16 05:36:00;;;;;;;5.20;4.30;;;;;;;23.90;64.17;98857.06;107882;1308;22312;-53
2023/07/16 05:38:25;;;;;;;5.20;4.30;;;;;;;23.96;64.18;98865.71;107891;1308;22225;-49
2023/07/16 05:40:50;;;;;;;7.10;4.20;;;;;;;24.06;63.74;98864.71;107866;1308;22229;-50
2023/07/16 05:43:16;;;;;;;5.10;4.30;;;;;;;24.19;63.37;98864.46;107856;1308;22301;-55
2023/07/16 05:45:41;;;;;;;5.80;4.30;;;;;;;24.36;62.64;98867.81;107856;1308;22249;-51
2023/07/16 05:48:06;;;;;;;9.70;4.20;;;;;;;24.54;62.43;98871.49;107876;1308;22242;-48
2023/07/16 05:50:32;;;;;;;7.00;4.30;;;;;;;24.71;61.58;98876.44;107856;1308;23257;-54
2023/07/16 05:52:57;;;;;;;6.60;4.50;;;;;;;24.86;61.29;98875.91;107839;1308;22403;-51
2023/07/16 05:55:22;;;;;;;6.40;3.90;;;;;;;24.97;60.90;98872.46;107852;1308;22230;-53
2023/07/16 05:57:48;;;;;;;5.50;4.40;;;;;;;25.01;60.32;98863.34;107906;1308;22866;-48
2023/07/16 06:00:13;;;;;;;5.10;3.80;;;;;;;25.06;60.29;98859.09;107851;1308;22249;-49
2023/07/16 06:02:39;;;;;;;8.10;4.60;;;;;;;25.11;59.83;98855.67;107881;1308;23346;-49
2023/07/16 06:05:05;;;;;;;6.80;4.50;;;;;;;25.16;59.63;98859.92;107855;1308;22240;-52
2023/07/16 06:07:31;;;;;;;5.30;4.30;;;;;;;25.21;59.69;98872.02;107890;1295;23253;-53
2023/07/16 06:09:57;;;;;;;5.50;4.20;;;;;;;25.28;59.57;98877.47;107693;1308;22975;-52
2023/07/16 06:12:22;;;;;;;7.10;4.30;;;;;;;25.36;59.18;98878.13;107867;1308;22239;-49
2023/07/16 06:14:47;;;;;;;5.50;4.50;;;;;;;25.45;59.08;98878.40;107891;1308;22947;-48
2023/07/16 06:17:12;;;;;;;7.60;4.80;;;;;;;25.53;58.12;98878.81;107867;1308;22267;-54
2023/07/16 06:19:38;;;;;;;5.50;4.50;;;;;;;25.63;58.17;98875.44;107864;1308;22227;-46
2023/07/16 06:22:03;;;;;;;5.50;4.80;;;;;;;25.71;57.68;98869.25;107878;1308;22310;-54
2023/07/16 06:24:29;;;;;;;5.20;4.70;;;;;;;25.81;57.57;98866.42;107882;1308;22411;-48
2023/07/16 06:26:54;;;;;;;7.80;4.60;;;;;;;25.90;57.43;98873.39;107871;1308;22882;-50
2023/07/16 06:29:19;;;;;;;7.80;5.10;;;;;;;25.98;57.19;98887.02;107843;1308;22267;-47
2023/07/16 06:31:57;;;;;;;6.00;5.20;;;;;;;26.09;56.81;98885.84;107714;1301;23161;-46
2023/07/16 06:34:24;;;;;;;7.10;4.80;;;;;;;26.18;56.83;98876.10;107875;1288;22218;-48
2023/07/16 06:36:49;;;;;;;6.80;5.60;;;;;;;26.26;56.75;98878.02;107871;1308;22797;-52
2023/07/16 06:39:15;;;;;;;6.30;4.80;;;;;;;26.32;56.68;98880.06;107856;1308;22986;-52
2023/07/16 06:41:40;;;;;;;9.00;5.20;;;;;;;26.40;56.59;98879.08;107872;1308;23150;-54
2023/07/16 06:44:05;;;;;;;7.00;5.20;;;;;;;26.48;56.55;98876.97;107881;1308;23077;-46
2023/07/16 06:46:31;;;;;;;6.30;5.10;;;;;;;26.55;56.38;98874.78;107870;1308;22311;-46
2023/07/16 06:48:56;;;;;;;6.60;5.40;;;;;;;26.60;56.27;98873.45;107864;1308;22306;-51
2023/07/16 06:51:21;;;;;;;13.40;5.10;;;;;;;26.68;56.41;98874.38;107875;1308;22413;-49
2023/07/16 06:53:47;;;;;;;7.90;4.90;;;;;;;26.79;56.30;98889.70;107859;1308;22969;-51
2023/07/16 06:56:12;;;;;;;6.10;5.20;;;;;;;26.84;56.03;98874.88;107867;1308;22237;-49
2023/07/16 06:58:37;;;;;;;6.70;4.80;;;;;;;26.89;56.17;98890.75;107896;1308;23440;-52
2023/07/16 07:01:03;;;;;;;6.20;4.60;;;;;;;26.91;56.01;98880.55;107859;1308;22243;-49
2023/07/16 07:03:28;;;;;;;10.90;5.00;;;;;;;27.00;56.00;98898.35;107870;1308;22956;-50
2023/07/16 07:05:53;;;;;;;5.90;4.80;;;;;;;27.01;55.88;98890.55;107884;1308;22983;-44
2023/07/16 07:08:18;;;;;;;8.60;5.40;;;;;;;27.06;55.92;98885.13;107877;1308;22679;-50
2023/07/16 07:10:44;;;;;;;7.00;4.60;;;;;;;27.09;56.01;98896.53;107874;1308;22263;-49
2023/07/16 07:13:09;;;;;;;8.80;5.10;;;;;;;27.14;56.11;98898.30;107888;1308;22228;-48
2023/07/16 07:15:34;;;;;;;7.70;4.90;;;;;;;27.17;56.09;98902.51;107889;1308;23237;-53
2023/07/16 07:18:00;;;;;;;7.80;5.20;;;;;;;27.20;56.02;98907.20;107880;1308;23105;-51
2023/07/16 07:20:25;;;;;;;9.50;5.00;;;;;;;27.24;56.11;98904.86;107873;1289;22211;-50
2023/07/16 07:22:50;;;;;;;12.00;4.90;;;;;;;27.30;56.04;98908.60;107860;1308;22959;-48
2023/07/16 07:25:16;;;;;;;6.70;4.90;;;;;;;27.32;56.09;98902.71;107861;1308;22154;-49
2023/07/16 07:27:41;;;;;;;10.80;4.40;;;;;;;27.35;56.00;98903.30;107855;1308;22242;-47
2023/07/16 07:30:07;;;;;;;5.30;4.80;;;;;;;27.38;55.79;98903.98;107871;1308;22211;-48
2023/07/16 07:32:32;;;;;;;5.20;4.70;;;;;;;27.44;55.91;98903.58;107916;1308;22276;-50
2023/07/16 07:34:58;;;;;;;5.80;4.50;;;;;;;27.51;55.69;98904.76;107866;1308;22236;-50
2023/07/16 07:37:23;;;;;;;7.60;4.80;;;;;;;27.52;55.16;98908.25;107856;1308;22626;-43
2023/07/16 07:39:52;;;;;;;10.70;5.00;;;;;;;27.53;55.28;98909.21;107836;1308;22404;-46
2023/07/16 07:42:17;;;;;;;8.50;4.50;;;;;;;27.56;55.41;98910.63;107865;1308;23068;-48
2023/07/16 07:44:42;;;;;;;9.80;4.50;;;;;;;27.59;54.93;98917.70;107850;1308;22286;-49
2023/07/16 07:47:08;;;;;;;5.70;4.60;;;;;;;27.65;54.87;98915.42;107888;1308;22414;-46
2023/07/16 07:49:34;;;;;;;6.80;4.70;;;;;;;27.65;54.47;98915.14;107705;1308;22234;-48
2023/07/16 07:51:59;;;;;;;6.30;4.70;;;;;;;27.66;54.32;98916.80;107846;1308;22240;-49
2023/07/16 07:54:25;;;;;;;10.30;4.80;;;;;;;27.69;54.23;98919.34;107890;1308;23131;-47
2023/07/16 07:56:50;;;;;;;12.80;5.40;;;;;;;27.76;54.40;98925.80;107906;1308;22180;-54
2023/07/16 07:59:15;;;;;;;7.10;4.90;;;;;;;27.86;54.16;98923.19;107863;1308;22527;-49
2023/07/16 08:01:41;;;;;;;9.50;4.70;;;;;;;27.93;54.17;98923.36;107845;1308;22714;-53
2023/07/16 08:04:06;;;;;;;4.90;4.50;;;;;;;28.01;53.98;98924.86;107685;1308;22258;-49
2023/07/16 08:06:32;;;;;;;4.70;4.30;;;;;;;28.09;53.48;98934.47;107881;1285;22226;-46
2023/07/16 08:08:57;;;;;;;7.00;5.20;;;;;;;28.14;52.69;98931.93;107886;1308;22394;-51
2023/07/16 08:11:22;;;;;;;9.10;4.40;;;;;;;28.18;52.49;98927.40;107883;1308;22448;-52
2023/07/16 08:13:49;;;;;;;5.00;4.50;;;;;;;28.25;52.22;98931.69;107876;1308;22804;-50
2023/07/16 08:16:14;;;;;;;;;;;;;;;28.29;51.81;98931.56;107923;1308;22413;-49
2023/07/16 08:18:40;;;;;;;4.20;3.90;;;;;;;28.34;51.43;98929.69;107874;1308;22923;-50
2023/07/16 08:21:05;;;;;;;8.10;4.00;;;;;;;28.48;50.77;98941.66;107866;1308;23124;-48
2023/07/16 08:23:30;;;;;;;6.70;3.40;;;;;;;28.59;48.52;98941.80;107836;1308;23291;-48
2023/07/16 08:25:55;;;;;;;4.40;3.10;;;;;;;28.70;47.77;98944.00;107887;1308;22454;-52
2023/07/16 08:28:21;;;;;;;4.00;2.90;;;;;;;28.83;47.11;98938.52;107871;1308;22190;-50
2023/07/16 08:30:47;;;;;;;3.80;2.70;;;;;;;28.92;44.98;98936.95;107884;1308;22401;-53
2023/07/16 08:33:14;;;;;;;7.20;2.70;;;;;;;29.05;44.89;98936.36;107885;1308;22327;-48
2023/07/16 08:35:40;;;;;;;6.80;3.00;;;;;;;29.13;44.23;98948.71;107901;1308;22448;-50
2023/07/16 08:38:09;;;;;;;2.80;2.40;;;;;;;29.19;43.82;98946.96;107881;1308;22239;-49
2023/07/16 08:40:35;;;;;;;3.70;2.40;;;;;;;29.31;43.88;98945.58;107899;1308;22236;-48
2023/07/16 08:43:01;;;;;;;3.40;2.90;;;;;;;29.49;43.21;98948.12;107879;1308;22216;-55
2023/07/16 08:45:29;;;;;;;3.30;2.40;;;;;;;29.61;41.43;98952.98;107885;1308;22225;-52
2023/07/16 08:47:55;;;;;;;5.00;2.70;;;;;;;29.81;41.60;98952.44;107894;1308;22229;-55
2023/07/16 08:50:22;;;;;;;2.80;2.40;;;;;;;30.03;41.52;98955.71;107897;1308;22991;-50
2023/07/16 08:52:48;;;;;;;3.00;2.70;;;;;;;30.23;40.77;98958.36;107884;1308;22627;-58
2023/07/16 08:55:13;;;;;;;3.40;2.70;;;;;;;30.39;40.33;98964.18;107899;1308;22299;-50
2023/07/16 08:57:39;;;;;;;4.40;2.40;;;;;;;30.36;39.48;98960.66;107871;1308;22298;-49
2023/07/16 09:00:06;;;;;;;4.30;2.50;;;;;;;30.49;39.46;98962.26;107915;1308;23633;-50
2023/07/16 09:02:32;;;;;;;;;;;;;;;30.65;38.94;98966.79;107874;1308;22464;-56
2023/07/16 09:04:58;;;;;;;3.00;2.60;;;;;;;30.69;39.04;98970.34;107877;1308;22953;-53
2023/07/16 09:07:24;;;;;;;9.10;3.00;;;;;;;30.73;38.76;98969.10;107897;1308;23020;-52
2023/07/16 09:09:59;;;;;;;3.50;3.20;;;;;;;30.91;38.32;98967.05;107889;1308;22254;-50
2023/07/16 09:12:25;;;;;;;2.80;2.50;;;;;;;31.04;37.90;98974.48;107893;1308;22508;-57
2023/07/16 09:14:50;;;;;;;3.50;2.90;;;;;;;31.10;37.47;98972.86;107900;1292;22237;-50
2023/07/16 09:17:26;;;;;;;7.30;3.30;;;;;;;31.15;37.29;98979.79;107880;1308;22220;-47
2023/07/16 09:19:52;;;;;;;5.10;3.00;;;;;;;31.22;37.23;98969.10;107459;1308;22216;-47
2023/07/16 09:22:18;;;;;;;8.40;2.50;;;;;;;31.28;36.99;98967.14;107863;1308;22943;-48
2023/07/16 09:24:44;;;;;;;;;;;;;;;31.35;37.18;98971.66;107901;1308;22517;-53
2023/07/16 09:27:11;;;;;;;3.40;2.00;;;;;;;31.51;36.97;98979.88;107881;1308;22964;-54
2023/07/16 09:29:37;;;;;;;;;;;;;;;31.58;36.67;98978.83;107888;1308;22424;-52
2023/07/16 09:32:04;;;;;;;2.40;2.10;;;;;;;31.70;36.07;98974.91;107894;1288;22284;-55
2023/07/16 09:34:31;;;;;;;2.20;2.00;;;;;;;31.89;36.05;98977.10;107877;1308;22228;-50
2023/07/16 09:36:57;;;;;;;2.10;2.00;;;;;;;32.16;35.16;98986.85;107901;1308;22767;-50
2023/07/16 09:39:22;;;;;;;3.30;2.00;;;;;;;32.47;34.35;98989.63;107880;1308;22409;-50
2023/07/16 09:41:49;;;;;;;1.90;1.70;;;;;;;32.94;34.25;98986.61;107898;1308;23135;-49
2023/07/16 09:44:15;;;;;;;3.60;1.50;;;;;;;33.38;33.19;98986.81;107879;1308;22228;-58
2023/07/16 09:46:40;;;;;;;1.70;1.60;;;;;;;33.77;32.38;98982.80;107886;1308;22242;-49
2023/07/16 09:49:07;;;;;;;4.90;2.00;;;;;;;34.17;31.91;98977.84;107866;1308;22311;-56
2023/07/16 09:51:34;;;;;;;2.30;1.80;;;;;;;34.71;31.05;98976.61;107885;1308;22369;-55
2023/07/16 09:54:01;;;;;;;1.60;1.50;;;;;;;35.27;30.96;98985.70;107907;1308;22395;-53
2023/07/16 09:56:34;;;;;;;1.70;1.60;;;;;;;35.52;30.23;98990.00;107900;1308;22419;-53
2023/07/16 09:59:01;;;;;;;1.40;1.30;;;;;;;35.50;29.57;98989.21;107856;1308;22402;-55
2023/07/16 10:01:26;;;;;;;2.40;1.40;;;;;;;35.62;29.05;98989.73;107882;1308;22445;-47
2023/07/16 10:03:52;;;;;;;2.00;1.30;;;;;;;35.82;28.27;98995.06;107874;1308;22431;-52
2023/07/16 10:06:18;;;;;;;2.10;1.80;;;;;;;36.16;27.70;98997.27;107909;1308;22239;-53
2023/07/16 10:08:49;;;;;;;4.80;1.70;;;;;;;36.24;27.21;98994.17;107898;1308;22252;-54
2023/07/16 10:11:17;;;;;;;2.00;1.70;;;;;;;36.52;27.70;98992.23;107910;1308;22238;-48
2023/07/16 10:13:42;;;;;;;1.80;1.60;;;;;;;36.91;26.98;98993.20;107877;1308;22230;-54
2023/07/16 10:16:10;;;;;;;4.00;1.50;;;;;;;36.98;25.83;98984.42;107894;1308;23260;-51
2023/07/16 10:18:36;;;;;;;3.00;1.50;;;;;;;37.22;25.76;98981.54;107923;1308;22260;-48
2023/07/16 10:21:07;;;;;;;2.70;1.30;;;;;;;37.52;25.89;98986.23;107895;1308;22238;-50
2023/07/16 10:23:42;;;;;;;3.50;1.70;;;;;;;37.77;25.01;98985.39;107873;1308;22399;-57
2023/07/16 10:26:09;;;;;;;1.30;1.10;;;;;;;38.06;24.91;98981.16;107889;1308;22249;-54
2023/07/16 10:28:36;;;;;;;2.00;1.30;;;;;;;38.10;24.93;98986.65;107876;1308;22216;-56
2023/07/16 10:31:01;;;;;;;1.40;1.30;;;;;;;38.45;24.16;98981.34;107846;1308;22251;-46
2023/07/16 10:33:27;;;;;;;1.70;1.60;;;;;;;38.58;24.21;98975.08;107901;1308;22298;-45
2023/07/16 10:35:53;;;;;;;2.30;1.20;;;;;;;39.08;23.58;98988.61;107863;1308;22427;-51
2023/07/16 10:38:18;;;;;;;1.40;1.30;;;;;;;39.25;24.20;98984.06;107900;1308;22264;-56
2023/07/16 10:40:45;;;;;;;2.50;1.40;;;;;;;39.60;23.58;98984.06;107916;1308;23059;-51
2023/07/16 10:43:11;;;;;;;2.20;1.30;;;;;;;39.53;23.00;98980.42;107889;1308;22909;-55
2023/07/16 10:45:36;;;;;;;3.40;1.30;;;;;;;39.74;23.07;98980.04;107898;1308;22304;-52
2023/07/16 10:48:02;;;;;;;2.50;1.30;;;;;;;40.12;22.31;98978.64;107865;1308;22207;-49
2023/07/16 10:50:28;;;;;;;1.50;1.40;;;;;;;40.24;22.01;98979.71;107877;1308;22425;-51
2023/07/16 10:52:56;;;;;;;2.80;1.20;;;;;;;40.66;21.85;98975.66;107901;1308;22233;-46
2023/07/16 10:55:22;;;;;;;2.60;1.10;;;;;;;40.84;21.91;98983.82;107865;1308;22942;-48
2023/07/16 10:57:53;;;;;;;1.50;1.40;;;;;;;40.75;21.56;98986.31;107876;1308;22427;-48
2023/07/16 11:00:19;;;;;;;2.20;1.50;;;;;;;39.95;22.02;98978.20;107878;1301;22263;-52
2023/07/16 11:02:44;;;;;;;2.30;1.30;;;;;;;39.33;22.77;98979.80;107858;1308;22393;-49
2023/07/16 11:05:14;;;;;;;1.70;1.20;;;;;;;38.86;23.26;98984.55;107847;1308;22992;-49
2023/07/16 11:07:57;;;;;;;3.30;1.60;;;;;;;38.72;23.47;98990.66;107856;1308;22242;-50
2023/07/16 11:10:24;;;;;;;5.20;1.40;;;;;;;38.46;23.78;98984.14;107863;1308;22988;-54
2023/07/16 11:12:53;;;;;;;3.10;1.50;;;;;;;38.75;23.71;98986.77;107894;1308;22249;-50
2023/07/16 11:15:18;;;;;;;2.10;1.20;;;;;;;39.08;22.96;98987.69;107868;1308;22335;-49
2023/07/16 11:17:48;;;;;;;3.70;1.50;;;;;;;39.49;22.31;98983.31;107890;1308;22507;-55
2023/07/16 11:20:14;;;;;;;2.20;1.30;;;;;;;40.18;21.99;98985.54;107897;1308;22231;-52
2023/07/16 11:22:39;;;;;;;1.50;1.40;;;;;;;40.69;21.81;98983.74;107840;1308;22224;-51
2023/07/16 11:25:12;;;;;;;1.40;1.30;;;;;;;40.71;21.30;98986.42;107865;1308;22431;-54